Harmon, Guam
Current Conditions -  °F | °C
As of 11:54 PM on Thursday 23 Oct 2014 (Local Time) from PGUM Reporting Station
Scattered Clouds Scattered Clouds  
Wind Chill: 81°   Ceiling: Unl
Heat Index: 89°   Visibility: 10mi
Dew Point: 78°   Wind: 5mph
Humidity: 91%   Direction: 110°ESE
Pressure: 29.88"   Gusts: NA
Location:  13.462°N, 144.794°E
Report Text: PGUM 231354Z 11004KT 10SM FEW015 SCT040 SCT050 27/26 A2988 RMK AO2 RAE12B35E49 SLP108 P0002 T02720256 403110239
Loading
Personal Weather Stations






























Interactive Weather Map
Tropical Storm Tracking
New forecast layout! Learn more

10-Day Weather Forecast

Advertisements
Track Severe Weather on mobile